North Platte Regional Airport Lee Bird Field
KLBF : now visible

Airfield :











YOU CAN JOIN US ON...

 
LOGIN :

Register | Disclaimer

   EN    FR    IT 

 









Legend :    VFR   Marginal VFR   IFR   Intensive IFR   Very Intensive IFR
Visi :
Ceiling :
>= 8 km
>= 3000ft
5 to 8 km
1000 to 3000 ft
1500m to 5 km
500 to 1000 ft
800 to 1500m
200 to 500 ft
< 800m
< 200 ft
Symbols :   Thunderstorms  Fog  Heavy snow  Heavy precipitations  Wind > 20 kt






- Airport Elevation : 2777 ft
- IATA code : LBF


KLBF - North Platte Regional Lee Bird Field

CURRENT METAR :
  • 112053Z AUTO 13011G20KT 10SM CLR 33/18 A2990 RMK AO2 SLP095 T03280183 56015

EXPIRED METARs :
  • 111953Z AUTO 13013G21KT 10SM CLR 32/18 A2991 RMK AO2 SLP098 T03220178
  • 111853Z AUTO 13011G19KT 10SM CLR 32/18 A2992 RMK AO2 SLP103 T03170178

TAF KLBF
Valid from the 11 at 18:00 until the 12 at 18:00 UTC


111724Z 1118/1218 15012KT P6SM SCT250
FM120200 08009KT P6SM SCT250
FM120500 13007KT P6SM SCT250 WS020/18035KT
FM121700 16007KT P6SM FEW200
KZDV FIR / North America



MET'MAP, your aeronautical weather chart ! - Copyright ORBIFLY December 2007 - Disclaimer

ORBIFLY MET'MAP TEAM :

Programming & Development : Alexandra Zaïnal
Concept & original design : Baudouin d'Aumeries
Assistance for programming : Marc-Olivier Méhu
Technical & hardware support : Manuel Goepfert

Contact : metmap@orbifly.com




SOURCES & CREDITS :

   NOAA       Earth
Advisory